createdAt,value
2018-06-20T00:01:16.718Z,8.27
2018-06-20T00:03:45.519Z,8.07
2018-06-20T00:06:14.144Z,7.53
2018-06-20T00:08:50.762Z,7.77
2018-06-20T00:11:20.428Z,7.07
2018-06-20T00:13:49.080Z,7.03
2018-06-20T00:16:17.727Z,7.30
2018-06-20T00:18:46.427Z,6.70
2018-06-20T00:21:15.185Z,7.00
2018-06-20T00:23:43.883Z,7.07
2018-06-20T00:26:12.568Z,6.93
2018-06-20T00:28:41.355Z,6.53
2018-06-20T00:31:10.104Z,7.17
2018-06-20T00:33:38.822Z,6.97
2018-06-20T00:36:07.466Z,7.07
2018-06-20T00:38:36.062Z,8.23
2018-06-20T00:41:04.716Z,8.83
2018-06-20T00:43:33.374Z,7.97
2018-06-20T00:46:02.058Z,8.00
2018-06-20T00:48:30.698Z,8.07
2018-06-20T00:50:59.338Z,9.00
2018-06-20T00:53:28.020Z,8.10
2018-06-20T00:56:07.960Z,7.80
2018-06-20T00:58:36.604Z,7.97
2018-06-20T01:01:05.411Z,7.97
2018-06-20T01:03:34.060Z,8.27
2018-06-20T01:06:02.710Z,8.00
2018-06-20T01:08:31.496Z,8.23
2018-06-20T01:11:00.157Z,7.83
2018-06-20T01:13:28.754Z,7.93
2018-06-20T01:15:57.499Z,8.70
2018-06-20T01:18:26.265Z,8.30
2018-06-20T01:20:54.955Z,8.70
2018-06-20T01:23:23.747Z,9.30
2018-06-20T01:25:52.415Z,9.33
2018-06-20T01:28:22.146Z,9.20
2018-06-20T01:30:52.317Z,8.83
2018-06-20T01:33:21.856Z,8.57
2018-06-20T01:35:50.677Z,8.37
2018-06-20T01:38:19.349Z,8.40
2018-06-20T01:40:48.010Z,8.87
2018-06-20T01:43:16.691Z,8.13
2018-06-20T01:45:46.214Z,8.63
2018-06-20T01:48:14.886Z,7.97
2018-06-20T01:50:43.538Z,8.27
2018-06-20T01:53:12.209Z,8.77
2018-06-20T01:55:40.861Z,8.30
2018-06-20T01:58:09.539Z,7.73
2018-06-20T02:00:38.192Z,8.03
2018-06-20T02:03:06.917Z,7.77
2018-06-20T02:05:35.563Z,9.03
2018-06-20T02:08:04.235Z,8.93
2018-06-20T02:10:32.878Z,9.33
2018-06-20T02:13:01.517Z,9.43
2018-06-20T02:15:30.171Z,9.53
2018-06-20T02:17:58.821Z,9.70
2018-06-20T02:20:27.481Z,8.90
2018-06-20T02:22:56.132Z,9.37
2018-06-20T02:25:24.747Z,9.27
2018-06-20T02:27:53.394Z,9.70
2018-06-20T02:30:22.086Z,10.53
2018-06-20T02:32:50.755Z,9.90
2018-06-20T02:35:19.480Z,9.20
2018-06-20T02:37:48.116Z,9.23
2018-06-20T02:40:16.742Z,9.77
2018-06-20T02:42:45.421Z,11.30
2018-06-20T02:45:14.082Z,9.73
2018-06-20T02:47:43.923Z,11.20
2018-06-20T02:50:13.947Z,11.00
2018-06-20T02:52:42.877Z,10.90
2018-06-20T02:55:11.659Z,11.37
2018-06-20T02:57:40.483Z,11.97
2018-06-20T03:00:09.157Z,11.83
2018-06-20T03:02:37.794Z,11.77
2018-06-20T03:05:06.499Z,12.53
2018-06-20T03:07:35.174Z,11.90
2018-06-20T03:10:03.893Z,12.60
2018-06-20T03:12:32.547Z,12.87
2018-06-20T03:15:01.260Z,13.50
2018-06-20T03:17:29.907Z,12.27
2018-06-20T03:19:58.560Z,13.20
2018-06-20T03:22:27.231Z,12.37
2018-06-20T03:24:55.954Z,12.93
2018-06-20T03:27:24.731Z,12.93
2018-06-20T03:29:53.433Z,13.30
2018-06-20T03:32:23.142Z,12.80
2018-06-20T03:34:51.793Z,13.57
2018-06-20T03:37:20.480Z,13.47
2018-06-20T03:39:49.159Z,12.20
2018-06-20T03:42:17.795Z,13.70
2018-06-20T03:44:46.495Z,13.47
2018-06-20T03:47:15.137Z,13.53
2018-06-20T03:49:43.874Z,14.00
2018-06-20T03:52:12.542Z,11.73
2018-06-20T03:54:41.209Z,11.93
2018-06-20T03:57:09.849Z,12.77
2018-06-20T03:59:38.477Z,11.47
2018-06-20T04:02:07.082Z,12.57
2018-06-20T04:04:35.702Z,11.90
2018-06-20T04:07:04.358Z,12.27
2018-06-20T04:09:32.990Z,12.03
2018-06-20T04:12:01.686Z,12.30
2018-06-20T04:14:30.415Z,12.73
2018-06-20T04:16:59.125Z,13.00
2018-06-20T04:19:27.782Z,12.03
2018-06-20T04:21:56.426Z,11.80
2018-06-20T04:24:25.108Z,12.80
2018-06-20T04:26:53.803Z,12.47
2018-06-20T04:29:22.521Z,12.83
2018-06-20T04:31:51.168Z,13.30
2018-06-20T04:34:19.859Z,12.67
2018-06-20T04:36:48.503Z,12.33
2018-06-20T04:39:17.182Z,12.73
2018-06-20T04:41:45.819Z,13.17
2018-06-20T04:44:14.541Z,12.70
2018-06-20T04:46:43.187Z,12.03
2018-06-20T04:49:11.831Z,12.60
2018-06-20T04:51:40.462Z,13.43
2018-06-20T04:54:09.154Z,11.70
2018-06-20T04:56:38.955Z,11.87
2018-06-20T04:59:07.646Z,11.97
2018-06-20T05:01:36.287Z,12.50
2018-06-20T05:04:05.011Z,12.40
2018-06-20T05:06:33.623Z,12.67
2018-06-20T05:09:04.347Z,11.80
2018-06-20T05:11:33.024Z,12.20
2018-06-20T05:14:01.655Z,13.20
2018-06-20T05:16:30.291Z,12.47
2018-06-20T05:18:58.983Z,10.87
2018-06-20T05:21:27.662Z,11.83
2018-06-20T05:23:56.471Z,12.83
2018-06-20T05:26:25.126Z,12.60
2018-06-20T05:28:53.801Z,12.30
2018-06-20T05:31:22.535Z,11.60
2018-06-20T05:33:51.143Z,12.10
2018-06-20T05:36:19.817Z,13.80
2018-06-20T05:38:48.591Z,13.17
2018-06-20T05:41:17.321Z,12.50
2018-06-20T05:43:45.964Z,12.70
2018-06-20T05:46:14.601Z,13.23
2018-06-20T05:48:43.244Z,12.57
2018-06-20T05:51:11.919Z,12.50
2018-06-20T05:53:40.920Z,12.30
2018-06-20T05:56:09.560Z,12.80
2018-06-20T05:58:38.194Z,12.77
2018-06-20T06:01:06.875Z,12.60
2018-06-20T06:03:35.542Z,13.67
2018-06-20T06:06:15.560Z,12.60
2018-06-20T06:08:44.791Z,12.63
2018-06-20T06:11:13.434Z,13.70
2018-06-20T06:13:42.055Z,13.73
2018-06-20T06:16:10.838Z,13.40
2018-06-20T06:18:39.518Z,13.47
2018-06-20T06:21:08.146Z,14.57
2018-06-20T06:23:36.811Z,13.93
2018-06-20T06:26:05.495Z,13.43
2018-06-20T06:28:34.142Z,14.43
2018-06-20T06:31:02.805Z,14.50
2018-06-20T06:33:31.469Z,14.67
2018-06-20T06:36:00.115Z,13.90
2018-06-20T06:38:28.878Z,14.97
2018-06-20T06:40:57.541Z,15.10
2018-06-20T06:43:26.200Z,14.97
2018-06-20T06:45:54.863Z,14.40
2018-06-20T06:48:23.546Z,14.43
2018-06-20T06:50:52.666Z,14.53
2018-06-20T06:53:21.305Z,16.10
2018-06-20T06:55:48.843Z,14.90
2018-06-20T06:58:17.744Z,13.30
2018-06-20T07:00:46.407Z,13.70
2018-06-20T07:03:15.055Z,14.27
2018-06-20T07:05:43.665Z,14.07
2018-06-20T07:08:12.366Z,12.63
2018-06-20T07:10:41.353Z,12.57
2018-06-20T07:13:10.009Z,13.23
2018-06-20T07:15:38.682Z,11.83
2018-06-20T07:18:07.350Z,12.90
2018-06-20T07:20:36.001Z,11.57
2018-06-20T07:23:04.711Z,11.97
2018-06-20T07:25:33.975Z,11.63
2018-06-20T07:28:02.620Z,10.93
2018-06-20T07:30:31.310Z,11.13
2018-06-20T07:32:59.982Z,10.83
2018-06-20T07:35:28.711Z,10.60
2018-06-20T07:37:57.401Z,10.00
2018-06-20T07:40:26.028Z,9.77
2018-06-20T07:42:54.674Z,9.33
2018-06-20T07:45:23.347Z,9.83
2018-06-20T07:47:52.010Z,9.13
2018-06-20T07:50:20.683Z,9.40
2018-06-20T07:52:49.334Z,9.00
2018-06-20T07:55:18.088Z,13.30
2018-06-20T07:57:46.740Z,8.77
2018-06-20T08:00:20.575Z,7.90
2018-06-20T08:03:05.619Z,8.37
2018-06-20T08:05:39.416Z,8.30
2018-06-20T08:08:13.564Z,8.60
2018-06-20T08:10:47.272Z,8.10
2018-06-20T08:13:21.183Z,8.40
2018-06-20T08:15:54.893Z,8.63
2018-06-20T08:18:28.747Z,8.77
2018-06-20T08:20:57.484Z,9.20
2018-06-20T08:23:26.295Z,8.33
2018-06-20T08:25:54.943Z,8.17
2018-06-20T08:28:23.611Z,7.80
2018-06-20T08:30:52.279Z,7.80
2018-06-20T08:33:20.970Z,7.25
2018-06-20T08:35:49.657Z,6.67
2018-06-20T08:38:18.352Z,6.60
2018-06-20T08:40:47.201Z,6.60
2018-06-20T08:43:15.826Z,6.47
2018-06-20T08:45:44.571Z,5.45
2018-06-20T08:48:13.182Z,5.15
2018-06-20T08:50:41.881Z,5.25
2018-06-20T08:53:10.591Z,6.08
2018-06-20T08:55:39.198Z,5.35
2018-06-20T08:58:07.892Z,5.15
2018-06-20T09:00:41.820Z,4.80
2018-06-20T09:03:10.570Z,5.60
2018-06-20T09:05:44.311Z,4.95
2018-06-20T09:08:18.170Z,5.45
2018-06-20T09:11:53.358Z,4.97
2018-06-20T09:14:21.983Z,4.92
2018-06-20T09:16:55.653Z,5.25
2018-06-20T09:19:29.384Z,5.10
2018-06-20T09:21:58.023Z,5.17
2018-06-20T09:24:26.945Z,5.10
2018-06-20T09:26:55.640Z,5.15
2018-06-20T09:29:24.280Z,4.97
2018-06-20T09:31:52.918Z,4.75
2018-06-20T09:34:21.537Z,4.92
2018-06-20T09:36:50.145Z,8.78
2018-06-20T09:39:18.918Z,4.85
2018-06-20T09:41:47.568Z,5.08
2018-06-20T09:44:16.236Z,5.30
2018-06-20T09:46:59.432Z,6.42
2018-06-20T09:49:28.019Z,4.15
2018-06-20T09:51:57.236Z,4.58
2018-06-20T09:54:25.938Z,6.35
2018-06-20T09:56:54.591Z,4.92
2018-06-20T09:59:28.502Z,4.50
2018-06-20T10:02:02.311Z,4.87
2018-06-20T10:04:36.145Z,4.53
2018-06-20T10:07:09.931Z,4.08
2018-06-20T10:09:43.848Z,3.72
2018-06-20T10:12:17.495Z,3.87
2018-06-20T10:14:46.199Z,3.92
2018-06-20T10:17:14.831Z,3.92
2018-06-20T10:19:43.444Z,3.80
2018-06-20T10:22:12.070Z,4.25
2018-06-20T10:24:40.724Z,3.95
2018-06-20T10:27:09.378Z,3.80
2018-06-20T10:29:38.124Z,3.70
2018-06-20T10:32:06.734Z,3.60
2018-06-20T10:34:35.360Z,3.42
2018-06-20T10:37:04.108Z,3.58
2018-06-20T10:39:32.790Z,3.60
2018-06-20T10:42:01.453Z,3.52
2018-06-20T10:44:30.099Z,3.33
2018-06-20T10:47:03.899Z,3.30
2018-06-20T10:49:32.628Z,3.40
2018-06-20T10:52:01.294Z,3.75
2018-06-20T10:54:29.974Z,3.55
2018-06-20T10:57:03.788Z,3.75
2018-06-20T10:59:37.617Z,3.75
2018-06-20T11:02:11.428Z,3.30
2018-06-20T11:04:45.483Z,3.83
2018-06-20T11:07:19.324Z,3.22
2018-06-20T11:09:53.207Z,3.52
2018-06-20T11:12:27.069Z,3.58
2018-06-20T11:14:55.755Z,4.00
2018-06-20T11:17:24.431Z,3.37
2018-06-20T11:19:53.232Z,3.15
2018-06-20T11:22:21.934Z,4.87
2018-06-20T11:24:50.603Z,3.12
2018-06-20T11:27:19.274Z,3.80
2018-06-20T11:29:47.922Z,3.67
2018-06-20T11:32:16.891Z,3.60
2018-06-20T11:34:45.522Z,4.95
2018-06-20T11:37:14.257Z,3.00
2018-06-20T11:39:42.919Z,3.87
2018-06-20T11:42:11.588Z,3.77
2018-06-20T11:44:40.254Z,3.98
2018-06-20T11:48:12.573Z,4.08
2018-06-20T11:50:41.264Z,3.40
2018-06-20T11:53:11.270Z,3.52
2018-06-20T11:55:41.123Z,3.50
2018-06-20T11:58:14.967Z,3.65
2018-06-20T12:00:48.893Z,2.98
2018-06-20T12:03:22.859Z,3.30
2018-06-20T12:05:56.683Z,3.77
2018-06-20T12:08:30.442Z,4.05
2018-06-20T12:11:04.082Z,3.45
2018-06-20T12:13:37.972Z,4.25
2018-06-20T12:16:11.831Z,5.25
2018-06-20T12:18:45.739Z,3.50
2018-06-20T12:21:19.533Z,3.27
2018-06-20T12:23:53.399Z,4.45
2018-06-20T12:26:27.142Z,3.50
2018-06-20T12:29:00.813Z,4.50
2018-06-20T12:31:34.641Z,3.10
2018-06-20T12:34:08.502Z,3.05
2018-06-20T12:36:42.403Z,3.08
2018-06-20T12:39:10.129Z,3.20
2018-06-20T12:41:43.921Z,3.20
2018-06-20T12:44:17.773Z,3.00
2018-06-20T12:46:54.259Z,3.10
2018-06-20T12:49:26.943Z,3.15
2018-06-20T12:51:55.622Z,3.33
2018-06-20T12:54:24.287Z,3.15
2018-06-20T12:56:52.941Z,3.30
2018-06-20T12:59:21.661Z,2.83
2018-06-20T13:01:50.362Z,3.12
2018-06-20T13:04:19.576Z,3.10
2018-06-20T13:06:48.235Z,2.80
2018-06-20T13:09:16.920Z,3.42
2018-06-20T13:11:45.557Z,3.10
2018-06-20T13:14:14.192Z,3.00
2018-06-20T13:16:43.480Z,2.98
2018-06-20T13:19:12.109Z,2.85
2018-06-20T13:21:40.823Z,3.35
2018-06-20T13:24:09.444Z,2.90
2018-06-20T13:26:38.092Z,3.00
2018-06-20T13:29:06.838Z,3.10
2018-06-20T13:31:41.019Z,3.50
2018-06-20T13:34:15.319Z,3.08
2018-06-20T13:36:49.258Z,3.20
2018-06-20T13:39:23.143Z,2.92
2018-06-20T13:41:56.810Z,3.00
2018-06-20T13:44:27.103Z,3.20
2018-06-20T13:47:01.032Z,3.08
2018-06-20T13:49:29.735Z,2.62
2018-06-20T13:51:58.446Z,3.12
2018-06-20T13:54:27.438Z,2.70
2018-06-20T13:56:56.083Z,3.30
2018-06-20T13:59:24.991Z,3.10
2018-06-20T14:01:53.734Z,3.42
2018-06-20T14:04:22.425Z,3.55
2018-06-20T14:06:51.794Z,3.50
2018-06-20T14:09:20.453Z,3.37
2018-06-20T14:11:49.102Z,3.52
2018-06-20T14:14:17.712Z,3.22
2018-06-20T14:16:46.447Z,3.37
2018-06-20T14:19:15.139Z,3.52
2018-06-20T14:21:43.774Z,3.67
2018-06-20T14:24:12.673Z,3.70
2018-06-20T14:26:41.912Z,3.60
2018-06-20T14:29:11.227Z,3.65
2018-06-20T14:31:44.970Z,5.47
2018-06-20T14:35:22.531Z,13.72
2018-06-20T14:37:56.368Z,4.75
2018-06-20T14:41:28.705Z,3.50
2018-06-20T14:44:02.550Z,3.37
2018-06-20T14:46:35.230Z,4.05
2018-06-20T14:49:03.994Z,3.27
2018-06-20T14:51:32.743Z,3.70
2018-06-20T14:54:01.443Z,3.33
2018-06-20T14:56:30.927Z,3.60
2018-06-20T14:58:59.618Z,3.70
2018-06-20T15:01:28.306Z,3.50
2018-06-20T15:03:57.131Z,3.40
2018-06-20T15:06:25.890Z,3.72
2018-06-20T15:08:54.555Z,4.47
2018-06-20T15:11:23.162Z,4.08
2018-06-20T15:13:51.881Z,3.72
2018-06-20T15:16:25.698Z,4.05
2018-06-20T15:18:54.367Z,3.90
2018-06-20T15:21:22.998Z,3.80
2018-06-20T15:23:51.647Z,3.30
2018-06-20T15:26:25.278Z,3.70
2018-06-20T15:28:59.256Z,4.05
2018-06-20T15:31:33.135Z,4.15
2018-06-20T15:34:07.054Z,3.60
2018-06-20T15:36:40.792Z,4.17
2018-06-20T15:39:09.682Z,3.33
2018-06-20T15:41:38.394Z,4.17
2018-06-20T15:44:07.405Z,3.80
2018-06-20T15:46:36.078Z,3.58
2018-06-20T15:49:05.254Z,3.35
2018-06-20T15:51:38.116Z,5.45
2018-06-20T15:54:06.747Z,3.85
2018-06-20T15:56:35.441Z,3.50
2018-06-20T15:59:04.117Z,3.98
2018-06-20T16:01:32.835Z,3.85
2018-06-20T16:04:01.528Z,3.72
2018-06-20T16:06:30.172Z,3.70
2018-06-20T16:09:04.077Z,3.70
2018-06-20T16:11:32.716Z,4.90
2018-06-20T16:14:01.402Z,3.72
2018-06-20T16:16:30.088Z,3.85
2018-06-20T16:19:03.962Z,8.70
2018-06-20T16:21:37.714Z,4.15
2018-06-20T16:24:11.543Z,4.70
2018-06-20T16:26:45.355Z,4.20
2018-06-20T16:29:19.537Z,4.12
2018-06-20T16:31:48.337Z,5.12
2018-06-20T16:34:17.161Z,4.08
2018-06-20T16:36:45.796Z,4.10
2018-06-20T16:39:14.468Z,4.28
2018-06-20T16:41:43.131Z,3.90
2018-06-20T16:44:11.801Z,4.17
2018-06-20T16:46:40.438Z,4.30
2018-06-20T16:49:09.344Z,3.92
2018-06-20T16:51:38.071Z,3.95
2018-06-20T16:54:06.873Z,4.28
2018-06-20T16:56:35.535Z,4.17
2018-06-20T16:59:04.212Z,4.35
2018-06-20T17:01:38.054Z,4.12
2018-06-20T17:04:06.754Z,3.92
2018-06-20T17:06:35.640Z,4.42
2018-06-20T17:09:06.339Z,4.30
2018-06-20T17:11:34.994Z,4.00
2018-06-20T17:14:08.937Z,4.08
2018-06-20T17:16:42.825Z,4.37
2018-06-20T17:19:16.771Z,4.50
2018-06-20T17:21:50.632Z,4.10
2018-06-20T17:24:24.538Z,4.35
2018-06-20T17:26:53.642Z,4.30
2018-06-20T17:29:22.394Z,4.55
2018-06-20T17:31:51.968Z,4.55
2018-06-20T17:34:20.670Z,5.55
2018-06-20T17:36:49.367Z,4.80
2018-06-20T17:39:18.121Z,4.92
2018-06-20T17:41:47.706Z,4.40
2018-06-20T17:44:16.460Z,4.78
2018-06-20T17:46:45.108Z,5.15
2018-06-20T17:49:14.520Z,4.58
2018-06-20T17:51:43.290Z,5.65
2018-06-20T17:54:11.987Z,5.30
2018-06-20T17:56:40.653Z,5.28
2018-06-20T17:59:10.557Z,4.67
2018-06-20T18:01:39.270Z,5.15
2018-06-20T18:04:07.928Z,6.97
2018-06-20T18:06:42.575Z,4.72
2018-06-20T18:09:16.381Z,5.42
2018-06-20T18:11:50.201Z,5.00
2018-06-20T18:14:23.979Z,5.33
2018-06-20T18:16:58.924Z,5.42
2018-06-20T18:19:28.142Z,5.60
2018-06-20T18:21:56.892Z,6.15
2018-06-20T18:24:26.190Z,6.80
2018-06-20T18:26:55.098Z,6.80
2018-06-20T18:29:23.736Z,6.30
2018-06-20T18:31:52.471Z,6.00
2018-06-20T18:34:21.140Z,28.87
2018-06-20T18:36:49.866Z,7.60
2018-06-20T18:39:18.550Z,7.62
2018-06-20T18:41:47.188Z,6.53
2018-06-20T18:44:15.852Z,6.67
2018-06-20T18:46:44.680Z,6.47
2018-06-20T18:49:13.315Z,6.40
2018-06-20T18:51:41.979Z,6.03
2018-06-20T18:54:11.811Z,6.33
2018-06-20T18:56:40.604Z,11.07
2018-06-20T18:59:14.606Z,16.73
2018-06-20T19:02:49.099Z,6.23
2018-06-20T19:05:22.880Z,5.93
2018-06-20T19:07:56.693Z,6.25
2018-06-20T19:10:25.391Z,7.47
2018-06-20T19:12:54.070Z,13.33
2018-06-20T19:15:23.170Z,11.37
2018-06-20T19:17:52.038Z,7.77
2018-06-20T19:20:20.680Z,6.90
2018-06-20T19:22:49.406Z,7.83
2018-06-20T19:25:18.080Z,9.40
2018-06-20T19:27:46.820Z,9.63
2018-06-20T19:30:16.853Z,6.43
2018-06-20T19:32:45.542Z,6.40
2018-06-20T19:35:15.121Z,6.50
2018-06-20T19:37:43.867Z,7.27
2018-06-20T19:40:12.577Z,7.50
2018-06-20T19:42:41.319Z,6.50
2018-06-20T19:45:10.044Z,7.30
2018-06-20T19:47:38.813Z,7.70
2018-06-20T19:50:07.473Z,6.77
2018-06-20T19:52:36.577Z,7.37
2018-06-20T19:55:05.288Z,7.17
2018-06-20T19:57:34.705Z,7.53
2018-06-20T20:00:05.608Z,7.67
2018-06-20T20:02:34.734Z,7.47
2018-06-20T20:05:03.476Z,10.47
2018-06-20T20:07:32.131Z,11.30
2018-06-20T20:10:00.828Z,7.77
2018-06-20T20:12:29.457Z,7.70
